Terminal Aerodrome Forecast
Issued by NWS Twin Cities, MN

Home | Current Version | Previous Version | Text Only | Print | Product List | Glossary Off
Versions: 1 2 3 4 5 6 7 8 9 10 11 12 13 14 15 16 17 18 19 20 21

636
FTUS43 KMPX 192337
TAFSTC
TAF
KSTC 192337Z 2000/2024 15010KT 6SM BR SCT008 SCT070
     FM200100 15007KT 4SM BR BKN008
     FM200300 14006KT 1SM BR OVC005
     FM200400 14005KT 1/2SM -DZ FG VV002
     FM201500 13004KT 2SM BR OVC004
     FM201800 13005KT 4SM BR OVC005=

USA.gov is the U.S. government's official web portal to all federal, state and local government web resources and services.